sensor_id;sensor_type;location;lat;lon;timestamp;P1;durP1;ratioP1;P2;durP2;ratioP2
14013;SDS011;49110;52.584;13.408;2023-03-23T00:00:55;3.07;;;2.00;;
14013;SDS011;49110;52.584;13.408;2023-03-23T00:01:56;3.77;;;1.87;;
14013;SDS011;49110;52.584;13.408;2023-03-23T00:02:56;3.83;;;1.97;;
14013;SDS011;49110;52.584;13.408;2023-03-23T00:03:57;3.00;;;2.10;;
14013;SDS011;49110;52.584;13.408;2023-03-23T00:04:58;2.60;;;1.80;;
14013;SDS011;49110;52.584;13.408;2023-03-23T00:06:00;2.33;;;1.93;;
14013;SDS011;49110;52.584;13.408;2023-03-23T00:07:07;4.17;;;2.00;;
14013;SDS011;49110;52.584;13.408;2023-03-23T00:08:07;1.70;;;1.60;;
14013;SDS011;49110;52.584;13.408;2023-03-23T00:09:18;2.07;;;1.87;;
14013;SDS011;49110;52.584;13.408;2023-03-23T00:10:23;2.63;;;1.87;;
14013;SDS011;49110;52.584;13.408;2023-03-23T00:11:26;2.40;;;1.63;;
14013;SDS011;49110;52.584;13.408;2023-03-23T00:12:30;5.03;;;1.97;;
14013;SDS011;49110;52.584;13.408;2023-03-23T00:13:34;3.13;;;1.83;;
14013;SDS011;49110;52.584;13.408;2023-03-23T00:14:35;3.40;;;2.00;;
14013;SDS011;49110;52.584;13.408;2023-03-23T00:15:41;2.50;;;1.80;;
14013;SDS011;49110;52.584;13.408;2023-03-23T00:16:41;2.37;;;2.00;;
14013;SDS011;49110;52.584;13.408;2023-03-23T00:17:42;3.10;;;1.97;;
14013;SDS011;49110;52.584;13.408;2023-03-23T00:18:46;2.67;;;1.80;;
14013;SDS011;49110;52.584;13.408;2023-03-23T00:19:47;3.70;;;2.00;;
14013;SDS011;49110;52.584;13.408;2023-03-23T00:20:55;2.63;;;1.93;;
14013;SDS011;49110;52.584;13.408;2023-03-23T00:21:56;3.17;;;1.87;;
14013;SDS011;49110;52.584;13.408;2023-03-23T00:23:00;2.73;;;1.60;;
14013;SDS011;49110;52.584;13.408;2023-03-23T00:24:03;2.13;;;1.90;;
14013;SDS011;49110;52.584;13.408;2023-03-23T00:25:08;3.00;;;2.10;;
14013;SDS011;49110;52.584;13.408;2023-03-23T00:26:08;2.33;;;1.80;;
14013;SDS011;49110;52.584;13.408;2023-03-23T00:27:09;2.13;;;1.90;;
14013;SDS011;49110;52.584;13.408;2023-03-23T00:28:12;3.07;;;2.17;;
14013;SDS011;49110;52.584;13.408;2023-03-23T00:29:14;2.70;;;1.90;;
14013;SDS011;49110;52.584;13.408;2023-03-23T00:30:16;2.23;;;1.90;;
14013;SDS011;49110;52.584;13.408;2023-03-23T00:31:17;5.43;;;2.50;;
14013;SDS011;49110;52.584;13.408;2023-03-23T00:32:19;2.87;;;1.77;;
14013;SDS011;49110;52.584;13.408;2023-03-23T00:33:28;2.20;;;2.00;;
14013;SDS011;49110;52.584;13.408;2023-03-23T00:34:30;3.23;;;1.83;;
14013;SDS011;49110;52.584;13.408;2023-03-23T00:35:33;1.63;;;1.53;;
14013;SDS011;49110;52.584;13.408;2023-03-23T00:36:35;2.60;;;2.10;;
14013;SDS011;49110;52.584;13.408;2023-03-23T00:37:42;2.80;;;1.97;;
14013;SDS011;49110;52.584;13.408;2023-03-23T00:38:43;2.37;;;1.77;;
14013;SDS011;49110;52.584;13.408;2023-03-23T00:39:46;3.47;;;2.50;;
14013;SDS011;49110;52.584;13.408;2023-03-23T00:40:47;3.40;;;2.10;;
14013;SDS011;49110;52.584;13.408;2023-03-23T00:41:48;2.80;;;1.97;;
14013;SDS011;49110;52.584;13.408;2023-03-23T00:42:48;2.20;;;2.00;;
14013;SDS011;49110;52.584;13.408;2023-03-23T00:43:50;2.23;;;1.90;;
14013;SDS011;49110;52.584;13.408;2023-03-23T00:44:51;3.30;;;1.90;;
14013;SDS011;49110;52.584;13.408;2023-03-23T00:45:59;3.83;;;2.30;;
14013;SDS011;49110;52.584;13.408;2023-03-23T00:47:01;2.47;;;2.00;;
14013;SDS011;49110;52.584;13.408;2023-03-23T00:48:03;2.90;;;1.90;;
14013;SDS011;49110;52.584;13.408;2023-03-23T00:49:04;2.00;;;1.80;;
14013;SDS011;49110;52.584;13.408;2023-03-23T00:50:04;2.20;;;2.00;;
14013;SDS011;49110;52.584;13.408;2023-03-23T00:51:06;1.90;;;1.80;;
14013;SDS011;49110;52.584;13.408;2023-03-23T00:52:10;3.43;;;1.97;;
14013;SDS011;49110;52.584;13.408;2023-03-23T00:53:11;5.77;;;2.47;;
14013;SDS011;49110;52.584;13.408;2023-03-23T00:54:11;3.90;;;2.30;;
14013;SDS011;49110;52.584;13.408;2023-03-23T00:55:12;3.73;;;2.23;;
14013;SDS011;49110;52.584;13.408;2023-03-23T00:56:13;2.13;;;1.93;;
14013;SDS011;49110;52.584;13.408;2023-03-23T00:57:14;2.40;;;1.93;;
14013;SDS011;49110;52.584;13.408;2023-03-23T00:58:16;2.07;;;1.87;;
14013;SDS011;49110;52.584;13.408;2023-03-23T00:59:16;2.03;;;1.80;;
14013;SDS011;49110;52.584;13.408;2023-03-23T01:00:18;4.90;;;2.30;;
14013;SDS011;49110;52.584;13.408;2023-03-23T01:01:19;3.03;;;2.00;;
14013;SDS011;49110;52.584;13.408;2023-03-23T01:02:19;3.50;;;1.87;;
14013;SDS011;49110;52.584;13.408;2023-03-23T01:03:24;1.73;;;1.60;;
14013;SDS011;49110;52.584;13.408;2023-03-23T01:04:26;2.20;;;2.00;;
14013;SDS011;49110;52.584;13.408;2023-03-23T01:05:28;1.77;;;1.67;;
14013;SDS011;49110;52.584;13.408;2023-03-23T01:06:32;3.93;;;2.20;;
14013;SDS011;49110;52.584;13.408;2023-03-23T01:07:40;2.73;;;1.90;;
14013;SDS011;49110;52.584;13.408;2023-03-23T01:08:41;2.83;;;2.00;;
14013;SDS011;49110;52.584;13.408;2023-03-23T01:09:45;3.13;;;1.90;;
14013;SDS011;49110;52.584;13.408;2023-03-23T01:10:46;2.33;;;1.80;;
14013;SDS011;49110;52.584;13.408;2023-03-23T01:11:48;3.03;;;1.80;;
14013;SDS011;49110;52.584;13.408;2023-03-23T01:12:50;2.67;;;1.90;;
14013;SDS011;49110;52.584;13.408;2023-03-23T01:13:51;4.73;;;2.23;;
14013;SDS011;49110;52.584;13.408;2023-03-23T01:14:51;3.17;;;2.00;;
14013;SDS011;49110;52.584;13.408;2023-03-23T01:15:52;2.20;;;2.00;;
14013;SDS011;49110;52.584;13.408;2023-03-23T01:16:52;2.73;;;2.20;;
14013;SDS011;49110;52.584;13.408;2023-03-23T01:17:53;3.83;;;2.40;;
14013;SDS011;49110;52.584;13.408;2023-03-23T01:18:54;4.83;;;2.70;;
14013;SDS011;49110;52.584;13.408;2023-03-23T01:19:55;2.70;;;2.20;;
14013;SDS011;49110;52.584;13.408;2023-03-23T01:20:56;2.40;;;2.20;;
14013;SDS011;49110;52.584;13.408;2023-03-23T01:21:56;3.67;;;2.00;;
14013;SDS011;49110;52.584;13.408;2023-03-23T01:23:00;3.80;;;2.17;;
14013;SDS011;49110;52.584;13.408;2023-03-23T01:24:00;3.93;;;2.00;;
14013;SDS011;49110;52.584;13.408;2023-03-23T01:25:01;3.30;;;2.10;;
14013;SDS011;49110;52.584;13.408;2023-03-23T01:26:04;2.50;;;1.93;;
14013;SDS011;49110;52.584;13.408;2023-03-23T01:27:07;3.00;;;2.00;;
14013;SDS011;49110;52.584;13.408;2023-03-23T01:28:07;2.40;;;2.20;;
14013;SDS011;49110;52.584;13.408;2023-03-23T01:29:07;2.43;;;1.90;;
14013;SDS011;49110;52.584;13.408;2023-03-23T01:30:08;2.73;;;2.10;;
14013;SDS011;49110;52.584;13.408;2023-03-23T01:31:12;3.53;;;1.90;;
14013;SDS011;49110;52.584;13.408;2023-03-23T01:32:15;2.30;;;2.10;;
14013;SDS011;49110;52.584;13.408;2023-03-23T01:33:16;3.77;;;2.10;;
14013;SDS011;49110;52.584;13.408;2023-03-23T01:34:17;2.53;;;1.77;;
14013;SDS011;49110;52.584;13.408;2023-03-23T01:35:17;2.87;;;1.90;;
14013;SDS011;49110;52.584;13.408;2023-03-23T01:36:19;2.27;;;2.07;;
14013;SDS011;49110;52.584;13.408;2023-03-23T01:37:21;2.40;;;2.20;;
14013;SDS011;49110;52.584;13.408;2023-03-23T01:38:26;3.13;;;2.03;;
14013;SDS011;49110;52.584;13.408;2023-03-23T01:39:26;2.97;;;1.97;;
14013;SDS011;49110;52.584;13.408;2023-03-23T01:40:27;2.20;;;2.00;;
14013;SDS011;49110;52.584;13.408;2023-03-23T01:41:28;5.93;;;2.43;;
14013;SDS011;49110;52.584;13.408;2023-03-23T01:42:32;3.27;;;2.10;;
14013;SDS011;49110;52.584;13.408;2023-03-23T01:43:35;2.23;;;2.00;;
14013;SDS011;49110;52.584;13.408;2023-03-23T01:45:36;2.57;;;1.90;;
14013;SDS011;49110;52.584;13.408;2023-03-23T01:46:36;2.87;;;2.07;;
14013;SDS011;49110;52.584;13.408;2023-03-23T01:47:37;3.27;;;1.93;;
14013;SDS011;49110;52.584;13.408;2023-03-23T01:48:37;2.27;;;2.07;;
14013;SDS011;49110;52.584;13.408;2023-03-23T01:49:41;2.77;;;2.10;;
14013;SDS011;49110;52.584;13.408;2023-03-23T01:51:53;11.87;;;2.70;;
14013;SDS011;49110;52.584;13.408;2023-03-23T01:52:57;2.10;;;1.90;;
14013;SDS011;49110;52.584;13.408;2023-03-23T01:53:59;2.27;;;1.77;;
14013;SDS011;49110;52.584;13.408;2023-03-23T01:55:04;5.00;;;2.20;;
14013;SDS011;49110;52.584;13.408;2023-03-23T01:56:06;2.23;;;1.90;;
14013;SDS011;49110;52.584;13.408;2023-03-23T01:57:13;3.03;;;2.07;;
14013;SDS011;49110;52.584;13.408;2023-03-23T01:58:17;3.60;;;2.20;;
14013;SDS011;49110;52.584;13.408;2023-03-23T01:59:27;3.40;;;2.20;;
14013;SDS011;49110;52.584;13.408;2023-03-23T02:00:28;2.20;;;2.00;;
14013;SDS011;49110;52.584;13.408;2023-03-23T02:01:30;2.23;;;1.80;;
14013;SDS011;49110;52.584;13.408;2023-03-23T02:02:31;2.30;;;2.07;;
14013;SDS011;49110;52.584;13.408;2023-03-23T02:03:35;2.40;;;2.20;;
14013;SDS011;49110;52.584;13.408;2023-03-23T02:04:38;4.43;;;2.10;;
14013;SDS011;49110;52.584;13.408;2023-03-23T02:05:40;3.77;;;2.27;;
14013;SDS011;49110;52.584;13.408;2023-03-23T02:06:41;3.80;;;2.20;;
14013;SDS011;49110;52.584;13.408;2023-03-23T02:07:44;2.53;;;2.13;;
14013;SDS011;49110;52.584;13.408;2023-03-23T02:08:46;4.07;;;2.00;;
14013;SDS011;49110;52.584;13.408;2023-03-23T02:09:50;3.10;;;2.03;;
14013;SDS011;49110;52.584;13.408;2023-03-23T02:10:51;3.27;;;1.90;;
14013;SDS011;49110;52.584;13.408;2023-03-23T02:11:52;3.63;;;2.07;;
14013;SDS011;49110;52.584;13.408;2023-03-23T02:12:54;2.17;;;1.83;;
14013;SDS011;49110;52.584;13.408;2023-03-23T02:13:55;1.67;;;1.53;;
14013;SDS011;49110;52.584;13.408;2023-03-23T02:14:55;3.60;;;1.80;;
14013;SDS011;49110;52.584;13.408;2023-03-23T02:17:24;2.50;;;1.93;;
14013;SDS011;49110;52.584;13.408;2023-03-23T02:18:52;2.37;;;1.93;;
14013;SDS011;49110;52.584;13.408;2023-03-23T02:20:04;4.23;;;2.00;;
14013;SDS011;49110;52.584;13.408;2023-03-23T02:24:18;2.33;;;1.80;;
14013;SDS011;49110;52.584;13.408;2023-03-23T02:30:50;2.43;;;2.10;;
14013;SDS011;49110;52.584;13.408;2023-03-23T02:32:20;2.00;;;1.90;;
14013;SDS011;49110;52.584;13.408;2023-03-23T02:35:08;2.30;;;2.10;;
14013;SDS011;49110;52.584;13.408;2023-03-23T02:36:19;3.33;;;2.00;;
14013;SDS011;49110;52.584;13.408;2023-03-23T02:37:50;2.17;;;1.80;;
14013;SDS011;49110;52.584;13.408;2023-03-23T02:39:03;2.83;;;1.87;;
14013;SDS011;49110;52.584;13.408;2023-03-23T02:40:32;5.70;;;2.00;;
14013;SDS011;49110;52.584;13.408;2023-03-23T02:41:40;4.83;;;1.93;;
14013;SDS011;49110;52.584;13.408;2023-03-23T02:42:48;2.70;;;1.90;;
14013;SDS011;49110;52.584;13.408;2023-03-23T02:43:51;6.87;;;2.17;;
14013;SDS011;49110;52.584;13.408;2023-03-23T02:44:53;3.57;;;1.97;;
14013;SDS011;49110;52.584;13.408;2023-03-23T02:45:54;2.33;;;2.13;;
14013;SDS011;49110;52.584;13.408;2023-03-23T02:46:57;2.37;;;2.13;;
14013;SDS011;49110;52.584;13.408;2023-03-23T02:48:00;2.50;;;1.80;;
14013;SDS011;49110;52.584;13.408;2023-03-23T02:49:04;2.37;;;2.03;;
14013;SDS011;49110;52.584;13.408;2023-03-23T02:50:07;3.47;;;2.10;;
14013;SDS011;49110;52.584;13.408;2023-03-23T02:51:11;3.43;;;2.00;;
14013;SDS011;49110;52.584;13.408;2023-03-23T02:52:14;2.63;;;2.03;;
14013;SDS011;49110;52.584;13.408;2023-03-23T02:53:20;1.93;;;1.83;;
14013;SDS011;49110;52.584;13.408;2023-03-23T02:54:23;2.33;;;2.13;;
14013;SDS011;49110;52.584;13.408;2023-03-23T02:55:26;3.43;;;2.10;;
14013;SDS011;49110;52.584;13.408;2023-03-23T02:56:28;2.23;;;2.03;;
14013;SDS011;49110;52.584;13.408;2023-03-23T02:57:29;3.50;;;2.00;;
14013;SDS011;49110;52.584;13.408;2023-03-23T02:58:30;2.23;;;2.03;;
14013;SDS011;49110;52.584;13.408;2023-03-23T02:59:31;2.37;;;2.13;;
14013;SDS011;49110;52.584;13.408;2023-03-23T03:00:32;2.40;;;2.00;;
14013;SDS011;49110;52.584;13.408;2023-03-23T03:02:38;2.23;;;1.70;;
14013;SDS011;49110;52.584;13.408;2023-03-23T03:03:41;3.17;;;2.30;;
14013;SDS011;49110;52.584;13.408;2023-03-23T03:04:43;2.33;;;1.83;;
14013;SDS011;49110;52.584;13.408;2023-03-23T03:06:23;4.03;;;1.80;;
14013;SDS011;49110;52.584;13.408;2023-03-23T03:07:40;1.80;;;1.70;;
14013;SDS011;49110;52.584;13.408;2023-03-23T03:08:59;2.50;;;2.00;;
14013;SDS011;49110;52.584;13.408;2023-03-23T03:10:18;2.13;;;1.93;;
14013;SDS011;49110;52.584;13.408;2023-03-23T03:11:25;2.73;;;1.90;;
14013;SDS011;49110;52.584;13.408;2023-03-23T03:15:02;2.33;;;1.80;;
14013;SDS011;49110;52.584;13.408;2023-03-23T03:16:31;2.40;;;1.90;;
14013;SDS011;49110;52.584;13.408;2023-03-23T03:17:37;1.93;;;1.83;;
14013;SDS011;49110;52.584;13.408;2023-03-23T03:19:46;2.47;;;1.90;;
14013;SDS011;49110;52.584;13.408;2023-03-23T03:20:20;2.17;;;1.97;;
14013;SDS011;49110;52.584;13.408;2023-03-23T03:21:23;2.20;;;1.90;;
14013;SDS011;49110;52.584;13.408;2023-03-23T03:22:27;2.07;;;1.80;;
14013;SDS011;49110;52.584;13.408;2023-03-23T03:23:29;2.13;;;1.60;;
14013;SDS011;49110;52.584;13.408;2023-03-23T03:24:32;2.07;;;1.87;;
14013;SDS011;49110;52.584;13.408;2023-03-23T03:25:33;2.10;;;1.90;;
14013;SDS011;49110;52.584;13.408;2023-03-23T03:26:34;1.80;;;1.70;;
14013;SDS011;49110;52.584;13.408;2023-03-23T03:27:35;2.00;;;1.80;;
14013;SDS011;49110;52.584;13.408;2023-03-23T03:28:35;2.33;;;1.80;;
14013;SDS011;49110;52.584;13.408;2023-03-23T03:29:37;2.17;;;2.00;;
14013;SDS011;49110;52.584;13.408;2023-03-23T03:30:43;1.80;;;1.70;;
14013;SDS011;49110;52.584;13.408;2023-03-23T03:31:46;3.30;;;1.70;;
14013;SDS011;49110;52.584;13.408;2023-03-23T03:32:49;3.40;;;2.00;;
14013;SDS011;49110;52.584;13.408;2023-03-23T03:33:53;4.03;;;1.80;;
14013;SDS011;49110;52.584;13.408;2023-03-23T03:34:54;3.27;;;1.50;;
14013;SDS011;49110;52.584;13.408;2023-03-23T03:35:54;2.67;;;1.70;;
14013;SDS011;49110;52.584;13.408;2023-03-23T03:36:56;4.73;;;2.20;;
14013;SDS011;49110;52.584;13.408;2023-03-23T03:38:04;3.07;;;1.80;;
14013;SDS011;49110;52.584;13.408;2023-03-23T03:39:08;2.83;;;2.07;;
14013;SDS011;49110;52.584;13.408;2023-03-23T03:40:11;3.30;;;1.90;;
14013;SDS011;49110;52.584;13.408;2023-03-23T03:41:14;2.50;;;1.80;;
14013;SDS011;49110;52.584;13.408;2023-03-23T03:42:15;4.33;;;2.17;;
14013;SDS011;49110;52.584;13.408;2023-03-23T03:43:15;3.33;;;1.80;;
14013;SDS011;49110;52.584;13.408;2023-03-23T03:44:16;2.90;;;1.97;;
14013;SDS011;49110;52.584;13.408;2023-03-23T03:45:18;2.50;;;2.00;;
14013;SDS011;49110;52.584;13.408;2023-03-23T03:46:19;2.17;;;1.70;;
14013;SDS011;49110;52.584;13.408;2023-03-23T03:47:19;3.63;;;2.00;;
14013;SDS011;49110;52.584;13.408;2023-03-23T03:48:20;2.10;;;1.90;;
14013;SDS011;49110;52.584;13.408;2023-03-23T03:49:20;2.47;;;1.90;;
14013;SDS011;49110;52.584;13.408;2023-03-23T03:50:22;3.23;;;2.07;;
14013;SDS011;49110;52.584;13.408;2023-03-23T03:51:23;2.30;;;2.10;;
14013;SDS011;49110;52.584;13.408;2023-03-23T03:52:25;2.23;;;1.80;;
14013;SDS011;49110;52.584;13.408;2023-03-23T03:53:27;2.57;;;2.00;;
14013;SDS011;49110;52.584;13.408;2023-03-23T03:54:28;1.93;;;1.83;;
14013;SDS011;49110;52.584;13.408;2023-03-23T03:55:28;3.57;;;2.00;;
14013;SDS011;49110;52.584;13.408;2023-03-23T03:56:29;3.60;;;2.00;;
14013;SDS011;49110;52.584;13.408;2023-03-23T03:57:31;2.37;;;2.00;;
14013;SDS011;49110;52.584;13.408;2023-03-23T03:58:32;2.77;;;2.00;;
14013;SDS011;49110;52.584;13.408;2023-03-23T03:59:36;3.10;;;2.20;;
14013;SDS011;49110;52.584;13.408;2023-03-23T04:00:36;2.30;;;2.10;;
14013;SDS011;49110;52.584;13.408;2023-03-23T04:01:37;2.87;;;2.07;;
14013;SDS011;49110;52.584;13.408;2023-03-23T04:02:38;3.20;;;2.17;;
14013;SDS011;49110;52.584;13.408;2023-03-23T04:03:38;3.13;;;2.10;;
14013;SDS011;49110;52.584;13.408;2023-03-23T04:04:39;2.73;;;2.00;;
14013;SDS011;49110;52.584;13.408;2023-03-23T04:05:41;2.83;;;2.07;;
14013;SDS011;49110;52.584;13.408;2023-03-23T04:06:44;2.97;;;1.83;;
14013;SDS011;49110;52.584;13.408;2023-03-23T04:07:44;2.17;;;1.83;;
14013;SDS011;49110;52.584;13.408;2023-03-23T04:08:49;2.57;;;1.90;;
14013;SDS011;49110;52.584;13.408;2023-03-23T04:09:49;4.97;;;2.40;;
14013;SDS011;49110;52.584;13.408;2023-03-23T04:10:50;2.30;;;2.10;;
14013;SDS011;49110;52.584;13.408;2023-03-23T04:11:51;2.10;;;1.90;;
14013;SDS011;49110;52.584;13.408;2023-03-23T04:12:51;2.23;;;1.87;;
14013;SDS011;49110;52.584;13.408;2023-03-23T04:13:52;2.63;;;2.00;;
14013;SDS011;49110;52.584;13.408;2023-03-23T04:14:52;2.27;;;2.07;;
14013;SDS011;49110;52.584;13.408;2023-03-23T04:15:53;4.00;;;2.13;;
14013;SDS011;49110;52.584;13.408;2023-03-23T04:16:53;3.50;;;2.40;;
14013;SDS011;49110;52.584;13.408;2023-03-23T04:17:56;5.87;;;4.93;;
14013;SDS011;49110;52.584;13.408;2023-03-23T04:18:57;5.27;;;4.10;;
14013;SDS011;49110;52.584;13.408;2023-03-23T04:19:58;3.67;;;3.30;;
14013;SDS011;49110;52.584;13.408;2023-03-23T04:21:00;3.90;;;2.80;;
14013;SDS011;49110;52.584;13.408;2023-03-23T04:22:02;2.23;;;1.97;;
14013;SDS011;49110;52.584;13.408;2023-03-23T04:23:03;4.37;;;2.50;;
14013;SDS011;49110;52.584;13.408;2023-03-23T04:24:05;2.53;;;2.33;;
14013;SDS011;49110;52.584;13.408;2023-03-23T04:25:06;2.70;;;2.20;;
14013;SDS011;49110;52.584;13.408;2023-03-23T04:26:07;4.30;;;2.23;;
14013;SDS011;49110;52.584;13.408;2023-03-23T04:27:07;4.43;;;2.13;;
14013;SDS011;49110;52.584;13.408;2023-03-23T04:28:08;5.30;;;2.10;;
14013;SDS011;49110;52.584;13.408;2023-03-23T04:29:10;2.10;;;1.87;;
14013;SDS011;49110;52.584;13.408;2023-03-23T04:30:13;3.60;;;2.30;;
14013;SDS011;49110;52.584;13.408;2023-03-23T04:31:13;3.87;;;2.07;;
14013;SDS011;49110;52.584;13.408;2023-03-23T04:32:14;3.67;;;2.20;;
14013;SDS011;49110;52.584;13.408;2023-03-23T04:33:17;2.47;;;2.10;;
14013;SDS011;49110;52.584;13.408;2023-03-23T04:34:22;3.17;;;2.40;;
14013;SDS011;49110;52.584;13.408;2023-03-23T04:35:23;2.80;;;2.40;;
14013;SDS011;49110;52.584;13.408;2023-03-23T04:36:27;2.47;;;2.23;;
14013;SDS011;49110;52.584;13.408;2023-03-23T04:37:33;2.57;;;2.23;;
14013;SDS011;49110;52.584;13.408;2023-03-23T04:38:34;3.93;;;2.27;;
14013;SDS011;49110;52.584;13.408;2023-03-23T04:39:34;5.00;;;2.50;;
14013;SDS011;49110;52.584;13.408;2023-03-23T04:40:36;2.50;;;2.30;;
14013;SDS011;49110;52.584;13.408;2023-03-23T04:41:37;2.97;;;2.00;;
14013;SDS011;49110;52.584;13.408;2023-03-23T04:42:38;2.60;;;2.23;;
14013;SDS011;49110;52.584;13.408;2023-03-23T04:43:39;2.30;;;2.10;;
14013;SDS011;49110;52.584;13.408;2023-03-23T04:44:41;3.40;;;2.30;;
14013;SDS011;49110;52.584;13.408;2023-03-23T04:45:43;2.90;;;2.30;;
14013;SDS011;49110;52.584;13.408;2023-03-23T04:46:45;5.27;;;2.40;;
14013;SDS011;49110;52.584;13.408;2023-03-23T04:47:49;3.47;;;2.37;;
14013;SDS011;49110;52.584;13.408;2023-03-23T04:48:57;2.60;;;2.40;;
14013;SDS011;49110;52.584;13.408;2023-03-23T04:49:58;3.03;;;2.40;;
14013;SDS011;49110;52.584;13.408;2023-03-23T04:51:00;3.83;;;2.50;;
14013;SDS011;49110;52.584;13.408;2023-03-23T04:52:02;2.47;;;2.27;;
14013;SDS011;49110;52.584;13.408;2023-03-23T04:53:04;3.17;;;2.10;;
14013;SDS011;49110;52.584;13.408;2023-03-23T04:54:04;2.53;;;2.30;;
14013;SDS011;49110;52.584;13.408;2023-03-23T04:55:05;2.83;;;2.50;;
14013;SDS011;49110;52.584;13.408;2023-03-23T04:56:07;2.60;;;2.40;;
14013;SDS011;49110;52.584;13.408;2023-03-23T04:57:08;3.67;;;2.00;;
14013;SDS011;49110;52.584;13.408;2023-03-23T04:58:08;4.50;;;2.50;;
14013;SDS011;49110;52.584;13.408;2023-03-23T04:59:10;3.07;;;2.30;;
14013;SDS011;49110;52.584;13.408;2023-03-23T05:00:11;4.10;;;2.43;;
14013;SDS011;49110;52.584;13.408;2023-03-23T05:01:14;5.17;;;2.60;;
14013;SDS011;49110;52.584;13.408;2023-03-23T05:02:14;2.63;;;2.40;;
14013;SDS011;49110;52.584;13.408;2023-03-23T05:03:17;3.77;;;2.43;;
14013;SDS011;49110;52.584;13.408;2023-03-23T05:04:18;2.67;;;2.47;;
14013;SDS011;49110;52.584;13.408;2023-03-23T05:05:19;2.63;;;2.33;;
14013;SDS011;49110;52.584;13.408;2023-03-23T05:06:20;3.13;;;2.53;;
14013;SDS011;49110;52.584;13.408;2023-03-23T05:07:21;4.87;;;2.43;;
14013;SDS011;49110;52.584;13.408;2023-03-23T05:08:22;2.50;;;2.20;;
14013;SDS011;49110;52.584;13.408;2023-03-23T05:09:26;4.33;;;2.50;;
14013;SDS011;49110;52.584;13.408;2023-03-23T05:10:27;2.67;;;2.27;;
14013;SDS011;49110;52.584;13.408;2023-03-23T05:11:27;3.47;;;2.63;;
14013;SDS011;49110;52.584;13.408;2023-03-23T05:12:27;5.50;;;2.37;;
14013;SDS011;49110;52.584;13.408;2023-03-23T05:13:28;4.90;;;2.37;;
14013;SDS011;49110;52.584;13.408;2023-03-23T05:14:29;2.47;;;2.27;;
14013;SDS011;49110;52.584;13.408;2023-03-23T05:15:29;3.90;;;2.47;;
14013;SDS011;49110;52.584;13.408;2023-03-23T05:16:30;2.93;;;2.30;;
14013;SDS011;49110;52.584;13.408;2023-03-23T05:17:30;2.30;;;2.10;;
14013;SDS011;49110;52.584;13.408;2023-03-23T05:18:32;2.57;;;2.20;;
14013;SDS011;49110;52.584;13.408;2023-03-23T05:19:32;3.73;;;2.63;;
14013;SDS011;49110;52.584;13.408;2023-03-23T05:20:33;4.77;;;2.57;;
14013;SDS011;49110;52.584;13.408;2023-03-23T05:21:33;2.53;;;2.33;;
14013;SDS011;49110;52.584;13.408;2023-03-23T05:22:34;3.23;;;2.37;;
14013;SDS011;49110;52.584;13.408;2023-03-23T05:23:36;3.07;;;2.13;;
14013;SDS011;49110;52.584;13.408;2023-03-23T05:24:36;2.67;;;2.30;;
14013;SDS011;49110;52.584;13.408;2023-03-23T05:25:37;3.17;;;2.07;;
14013;SDS011;49110;52.584;13.408;2023-03-23T05:26:40;2.83;;;2.40;;
14013;SDS011;49110;52.584;13.408;2023-03-23T05:27:40;3.13;;;2.30;;
14013;SDS011;49110;52.584;13.408;2023-03-23T05:28:48;2.97;;;2.20;;
14013;SDS011;49110;52.584;13.408;2023-03-23T05:29:52;3.13;;;2.20;;
14013;SDS011;49110;52.584;13.408;2023-03-23T05:30:52;3.73;;;2.30;;
14013;SDS011;49110;52.584;13.408;2023-03-23T05:31:53;2.87;;;2.10;;
14013;SDS011;49110;52.584;13.408;2023-03-23T05:32:55;2.97;;;2.20;;
14013;SDS011;49110;52.584;13.408;2023-03-23T05:33:56;2.30;;;2.10;;
14013;SDS011;49110;52.584;13.408;2023-03-23T05:34:57;2.50;;;2.30;;
14013;SDS011;49110;52.584;13.408;2023-03-23T05:35:58;5.07;;;2.40;;
14013;SDS011;49110;52.584;13.408;2023-03-23T05:37:03;3.73;;;2.27;;
14013;SDS011;49110;52.584;13.408;2023-03-23T05:38:04;4.33;;;2.43;;
14013;SDS011;49110;52.584;13.408;2023-03-23T05:39:04;3.67;;;2.47;;
14013;SDS011;49110;52.584;13.408;2023-03-23T05:40:05;3.30;;;2.17;;
14013;SDS011;49110;52.584;13.408;2023-03-23T05:41:06;2.57;;;2.33;;
14013;SDS011;49110;52.584;13.408;2023-03-23T05:42:07;3.80;;;2.60;;
14013;SDS011;49110;52.584;13.408;2023-03-23T05:43:08;2.83;;;2.37;;
14013;SDS011;49110;52.584;13.408;2023-03-23T05:44:09;3.63;;;2.27;;
14013;SDS011;49110;52.584;13.408;2023-03-23T05:45:10;3.23;;;2.53;;
14013;SDS011;49110;52.584;13.408;2023-03-23T05:46:12;2.67;;;2.20;;
14013;SDS011;49110;52.584;13.408;2023-03-23T05:47:12;3.57;;;2.30;;
14013;SDS011;49110;52.584;13.408;2023-03-23T05:48:13;3.20;;;2.20;;
14013;SDS011;49110;52.584;13.408;2023-03-23T05:49:14;3.63;;;2.50;;
14013;SDS011;49110;52.584;13.408;2023-03-23T05:50:16;3.27;;;2.50;;
14013;SDS011;49110;52.584;13.408;2023-03-23T05:51:17;4.13;;;2.60;;
14013;SDS011;49110;52.584;13.408;2023-03-23T05:52:19;4.47;;;2.87;;
14013;SDS011;49110;52.584;13.408;2023-03-23T05:53:20;2.73;;;2.50;;
14013;SDS011;49110;52.584;13.408;2023-03-23T05:54:20;5.67;;;2.57;;
14013;SDS011;49110;52.584;13.408;2023-03-23T05:55:21;4.93;;;2.30;;
14013;SDS011;49110;52.584;13.408;2023-03-23T05:56:21;3.10;;;2.30;;
14013;SDS011;49110;52.584;13.408;2023-03-23T05:57:22;4.50;;;2.30;;
14013;SDS011;49110;52.584;13.408;2023-03-23T05:58:22;4.47;;;2.60;;
14013;SDS011;49110;52.584;13.408;2023-03-23T05:59:23;6.20;;;2.50;;
14013;SDS011;49110;52.584;13.408;2023-03-23T06:00:24;5.63;;;2.57;;
14013;SDS011;49110;52.584;13.408;2023-03-23T06:01:25;5.53;;;2.40;;
14013;SDS011;49110;52.584;13.408;2023-03-23T06:02:25;2.63;;;2.30;;
14013;SDS011;49110;52.584;13.408;2023-03-23T06:03:29;5.13;;;2.33;;
14013;SDS011;49110;52.584;13.408;2023-03-23T06:04:29;2.60;;;2.37;;
14013;SDS011;49110;52.584;13.408;2023-03-23T06:05:33;5.80;;;2.10;;
14013;SDS011;49110;52.584;13.408;2023-03-23T06:06:33;2.47;;;2.27;;
14013;SDS011;49110;52.584;13.408;2023-03-23T06:07:34;3.57;;;2.27;;
14013;SDS011;49110;52.584;13.408;2023-03-23T06:08:35;4.83;;;2.40;;
14013;SDS011;49110;52.584;13.408;2023-03-23T06:09:37;3.97;;;2.30;;
14013;SDS011;49110;52.584;13.408;2023-03-23T06:10:37;3.63;;;2.20;;
14013;SDS011;49110;52.584;13.408;2023-03-23T06:11:38;4.40;;;4.00;;
14013;SDS011;49110;52.584;13.408;2023-03-23T06:12:39;5.63;;;4.00;;
14013;SDS011;49110;52.584;13.408;2023-03-23T06:13:40;6.63;;;4.20;;
14013;SDS011;49110;52.584;13.408;2023-03-23T06:14:40;6.80;;;3.97;;
14013;SDS011;49110;52.584;13.408;2023-03-23T06:15:42;3.50;;;3.00;;
14013;SDS011;49110;52.584;13.408;2023-03-23T06:16:43;3.63;;;2.70;;
14013;SDS011;49110;52.584;13.408;2023-03-23T06:17:43;3.03;;;2.20;;
14013;SDS011;49110;52.584;13.408;2023-03-23T06:18:44;4.07;;;2.43;;
14013;SDS011;49110;52.584;13.408;2023-03-23T06:19:44;2.80;;;2.20;;
14013;SDS011;49110;52.584;13.408;2023-03-23T06:20:46;3.10;;;2.17;;
14013;SDS011;49110;52.584;13.408;2023-03-23T06:21:47;2.93;;;2.60;;
14013;SDS011;49110;52.584;13.408;2023-03-23T06:22:47;2.20;;;1.97;;
14013;SDS011;49110;52.584;13.408;2023-03-23T06:23:48;3.03;;;2.00;;
14013;SDS011;49110;52.584;13.408;2023-03-23T06:24:49;3.23;;;2.40;;
14013;SDS011;49110;52.584;13.408;2023-03-23T06:25:52;3.67;;;2.40;;
14013;SDS011;49110;52.584;13.408;2023-03-23T06:26:54;4.37;;;2.07;;
14013;SDS011;49110;52.584;13.408;2023-03-23T06:27:55;3.07;;;2.37;;
14013;SDS011;49110;52.584;13.408;2023-03-23T06:28:55;2.30;;;2.10;;
14013;SDS011;49110;52.584;13.408;2023-03-23T06:29:55;2.97;;;2.03;;